createdAt,value
2022-12-29T00:01:58.314Z,3.63
2022-12-29T00:04:27.397Z,3.03
2022-12-29T00:06:55.554Z,2.20
2022-12-29T00:09:23.555Z,2.35
2022-12-29T00:11:51.967Z,3.03
2022-12-29T00:14:38.824Z,2.20
2022-12-29T00:17:06.790Z,2.30
2022-12-29T00:19:52.719Z,1.90
2022-12-29T00:22:38.204Z,2.35
2022-12-29T00:25:25.192Z,2.55
2022-12-29T00:28:10.602Z,1.85
2022-12-29T00:30:57.640Z,2.05
2022-12-29T00:33:48.122Z,2.22
2022-12-29T00:36:20.305Z,2.72
2022-12-29T00:39:12.617Z,2.10
2022-12-29T00:41:58.126Z,2.28
2022-12-29T00:44:26.081Z,1.75
2022-12-29T00:46:55.456Z,1.95
2022-12-29T00:49:32.721Z,2.65
2022-12-29T00:52:03.434Z,2.00
2022-12-29T00:54:34.841Z,2.28
2022-12-29T00:57:03.660Z,2.35
2022-12-29T00:59:32.390Z,2.08
2022-12-29T01:02:01.723Z,1.92
2022-12-29T01:04:30.732Z,2.40
2022-12-29T01:06:58.635Z,2.17
2022-12-29T01:09:44.400Z,1.92
2022-12-29T01:12:12.695Z,2.53
2022-12-29T01:14:41.110Z,2.63
2022-12-29T01:17:10.407Z,1.67
2022-12-29T01:19:38.670Z,2.03
2022-12-29T01:22:06.574Z,1.85
2022-12-29T01:24:35.315Z,2.10
2022-12-29T01:27:03.250Z,1.80
2022-12-29T01:29:31.563Z,1.63
2022-12-29T01:31:59.534Z,1.88
2022-12-29T01:34:28.863Z,2.25
2022-12-29T01:36:56.820Z,2.15
2022-12-29T01:39:24.815Z,2.10
2022-12-29T01:41:52.761Z,2.55
2022-12-29T01:44:50.442Z,2.00
2022-12-29T01:47:28.892Z,2.10
2022-12-29T01:50:00.850Z,1.73
2022-12-29T01:52:33.883Z,2.30
2022-12-29T01:55:05.209Z,2.40
2022-12-29T01:57:38.742Z,1.73
2022-12-29T02:00:09.366Z,2.33
2022-12-29T02:02:46.751Z,2.28
2022-12-29T02:05:24.127Z,2.28
2022-12-29T02:07:53.614Z,2.33
2022-12-29T02:10:23.699Z,1.65
2022-12-29T02:12:51.690Z,1.70
2022-12-29T02:15:20.883Z,1.67
2022-12-29T02:18:10.966Z,2.00
2022-12-29T02:21:17.885Z,2.25
2022-12-29T02:24:15.200Z,2.58
2022-12-29T02:27:03.589Z,2.63
2022-12-29T02:30:04.226Z,3.53
2022-12-29T02:32:40.676Z,3.60
2022-12-29T02:35:16.431Z,3.60
2022-12-29T02:37:58.067Z,4.25
2022-12-29T02:40:33.114Z,3.40
2022-12-29T02:43:09.227Z,4.57
2022-12-29T02:45:50.180Z,3.70
2022-12-29T02:48:26.236Z,3.53
2022-12-29T02:51:00.720Z,4.70
2022-12-29T02:53:48.102Z,5.47
2022-12-29T02:56:16.100Z,5.40
2022-12-29T02:58:44.243Z,5.15
2022-12-29T03:01:31.341Z,4.82
2022-12-29T03:04:23.038Z,5.00
2022-12-29T03:06:58.224Z,5.32
2022-12-29T03:09:38.381Z,5.40
2022-12-29T03:12:19.293Z,4.78
2022-12-29T03:15:12.212Z,4.93
2022-12-29T03:17:50.898Z,4.65
2022-12-29T03:20:23.849Z,5.20
2022-12-29T03:23:01.336Z,5.03
2022-12-29T03:25:32.989Z,4.70
2022-12-29T03:28:08.335Z,3.75
2022-12-29T03:30:43.460Z,3.85
2022-12-29T03:33:19.252Z,3.83
2022-12-29T03:35:52.709Z,3.67
2022-12-29T03:38:25.085Z,3.10
2022-12-29T03:40:58.748Z,3.13
2022-12-29T03:43:30.130Z,2.97
2022-12-29T03:45:58.676Z,2.60
2022-12-29T03:48:26.712Z,2.33
2022-12-29T03:50:58.225Z,2.28
2022-12-29T03:53:26.423Z,2.38
2022-12-29T03:55:54.935Z,2.05
2022-12-29T03:58:23.814Z,2.40
2022-12-29T04:01:03.352Z,2.75
2022-12-29T04:03:35.061Z,2.10
2022-12-29T04:06:05.921Z,2.38
2022-12-29T04:09:02.809Z,3.58
2022-12-29T04:11:34.952Z,3.38
2022-12-29T04:14:05.093Z,2.95
2022-12-29T04:16:36.553Z,2.67
2022-12-29T04:19:05.913Z,2.70
2022-12-29T04:21:36.502Z,2.33
2022-12-29T04:24:07.324Z,2.20
2022-12-29T04:26:39.720Z,2.80
2022-12-29T04:29:26.439Z,3.70
2022-12-29T04:32:17.346Z,3.92
2022-12-29T04:34:50.556Z,3.50
2022-12-29T04:37:21.136Z,4.10
2022-12-29T04:39:49.642Z,3.90
2022-12-29T04:42:18.216Z,3.67
2022-12-29T04:44:46.579Z,3.05
2022-12-29T04:47:20.325Z,3.92
2022-12-29T04:49:57.372Z,3.70
2022-12-29T04:52:41.859Z,3.40
2022-12-29T04:55:11.991Z,3.88
2022-12-29T04:57:41.475Z,4.13
2022-12-29T05:00:12.131Z,3.22
2022-12-29T05:02:40.554Z,3.85
2022-12-29T05:05:09.472Z,3.30
2022-12-29T05:07:43.602Z,4.28
2022-12-29T05:10:12.432Z,4.43
2022-12-29T05:12:40.878Z,5.03
2022-12-29T05:15:10.559Z,5.78
2022-12-29T05:18:16.213Z,5.60
2022-12-29T05:20:44.630Z,4.95
2022-12-29T05:23:14.492Z,4.50
2022-12-29T05:25:46.053Z,4.18
2022-12-29T05:28:22.378Z,4.22
2022-12-29T05:30:54.015Z,4.22
2022-12-29T05:33:22.529Z,4.32
2022-12-29T05:35:52.508Z,4.00
2022-12-29T05:38:23.104Z,3.08
2022-12-29T05:40:51.274Z,3.33
2022-12-29T05:43:48.656Z,3.38
2022-12-29T05:46:35.188Z,3.38
2022-12-29T05:49:26.084Z,2.78
2022-12-29T05:52:44.497Z,2.15
2022-12-29T05:55:14.389Z,2.15
2022-12-29T05:57:44.771Z,2.40
2022-12-29T06:00:17.096Z,2.45
2022-12-29T06:02:50.046Z,2.53
2022-12-29T06:05:20.677Z,2.72
2022-12-29T06:07:49.257Z,2.45
2022-12-29T06:10:20.383Z,2.05
2022-12-29T06:13:02.706Z,2.17
2022-12-29T06:15:32.908Z,1.77
2022-12-29T06:18:01.286Z,2.28
2022-12-29T06:20:29.619Z,2.72
2022-12-29T06:22:57.781Z,2.20
2022-12-29T06:25:27.261Z,1.98
2022-12-29T06:27:55.432Z,2.60
2022-12-29T06:30:23.655Z,3.08
2022-12-29T06:32:52.386Z,3.00
2022-12-29T06:35:21.237Z,2.45
2022-12-29T06:37:53.423Z,2.80
2022-12-29T06:40:22.634Z,2.80
2022-12-29T06:43:10.808Z,3.25
2022-12-29T06:45:42.114Z,2.95
2022-12-29T06:48:10.348Z,3.20
2022-12-29T06:50:41.320Z,3.50
2022-12-29T06:53:09.434Z,3.13
2022-12-29T06:55:37.618Z,3.45
2022-12-29T06:58:05.813Z,2.70
2022-12-29T07:00:35.643Z,3.40
2022-12-29T07:03:03.959Z,3.95
2022-12-29T07:05:33.548Z,4.00
2022-12-29T07:08:01.975Z,3.67
2022-12-29T07:10:30.266Z,3.33
2022-12-29T07:13:00.016Z,4.38
2022-12-29T07:15:28.236Z,3.13
2022-12-29T07:17:57.971Z,3.28
2022-12-29T07:20:27.216Z,3.40
2022-12-29T07:22:55.988Z,3.75
2022-12-29T07:25:24.555Z,3.42
2022-12-29T07:27:52.716Z,3.47
2022-12-29T07:30:21.107Z,2.92
2022-12-29T07:32:49.394Z,3.33
2022-12-29T07:35:21.235Z,3.67
2022-12-29T07:37:49.342Z,2.63
2022-12-29T07:40:17.573Z,2.42
2022-12-29T07:42:45.674Z,2.35
2022-12-29T07:45:17.003Z,2.42
2022-12-29T07:48:05.249Z,2.55
2022-12-29T07:50:35.058Z,2.58
2022-12-29T07:53:04.357Z,2.40
2022-12-29T07:55:32.560Z,2.47
2022-12-29T07:58:00.782Z,2.30
2022-12-29T08:00:28.856Z,2.00
2022-12-29T08:02:56.830Z,2.70
2022-12-29T08:05:24.871Z,2.45
2022-12-29T08:07:54.138Z,2.33
2022-12-29T08:10:22.072Z,2.53
2022-12-29T08:12:49.988Z,2.35
2022-12-29T08:15:18.167Z,2.60
2022-12-29T08:17:46.102Z,2.50
2022-12-29T08:20:14.066Z,2.47
2022-12-29T08:22:42.770Z,2.60
2022-12-29T08:25:12.130Z,1.90
2022-12-29T08:27:40.072Z,2.22
2022-12-29T08:30:09.334Z,8.95
2022-12-29T08:32:37.326Z,7.25
2022-12-29T08:35:06.065Z,3.05
2022-12-29T08:37:34.750Z,2.15
2022-12-29T08:40:04.788Z,1.52
2022-12-29T08:42:34.964Z,1.70
2022-12-29T08:45:04.752Z,2.35
2022-12-29T08:47:32.691Z,2.60
2022-12-29T08:50:00.620Z,3.85
2022-12-29T08:52:28.525Z,3.55
2022-12-29T08:54:56.702Z,3.28
2022-12-29T08:57:24.790Z,2.63
2022-12-29T09:00:09.126Z,2.45
2022-12-29T09:02:38.396Z,3.00
2022-12-29T09:05:07.516Z,2.83
2022-12-29T09:07:35.563Z,3.60
2022-12-29T09:10:03.580Z,3.25
2022-12-29T09:12:36.124Z,4.05
2022-12-29T09:15:05.718Z,4.25
2022-12-29T09:17:45.105Z,5.53
2022-12-29T09:20:13.875Z,6.60
2022-12-29T09:22:41.901Z,6.75
2022-12-29T09:25:11.059Z,6.38
2022-12-29T09:27:39.429Z,5.93
2022-12-29T09:30:10.172Z,6.60
2022-12-29T09:32:45.498Z,7.55
2022-12-29T09:35:14.025Z,6.65
2022-12-29T09:37:42.013Z,6.40
2022-12-29T09:40:25.865Z,6.68
2022-12-29T09:43:24.419Z,6.18
2022-12-29T09:46:01.533Z,8.43
2022-12-29T09:48:36.698Z,7.80
2022-12-29T09:51:10.832Z,7.38
2022-12-29T09:53:41.839Z,6.65
2022-12-29T09:56:15.320Z,6.75
2022-12-29T09:58:49.630Z,6.32
2022-12-29T10:01:28.361Z,6.30
2022-12-29T10:04:00.184Z,6.07
2022-12-29T10:06:34.085Z,6.25
2022-12-29T10:09:10.317Z,5.53
2022-12-29T10:11:54.568Z,6.20
2022-12-29T10:14:39.475Z,8.38
2022-12-29T10:17:20.866Z,9.10
2022-12-29T10:20:00.626Z,7.82
2022-12-29T10:22:51.176Z,7.38
2022-12-29T10:25:22.315Z,5.68
2022-12-29T10:27:51.849Z,7.15
2022-12-29T10:30:20.185Z,5.32
2022-12-29T10:32:53.755Z,5.28
2022-12-29T10:35:25.513Z,5.63
2022-12-29T10:38:00.238Z,5.95
2022-12-29T10:40:33.852Z,7.47
2022-12-29T10:43:04.388Z,9.65
2022-12-29T10:45:35.008Z,10.45
2022-12-29T10:48:11.010Z,11.60
2022-12-29T10:50:43.780Z,10.93
2022-12-29T10:53:20.867Z,11.02
2022-12-29T10:55:49.384Z,10.88
2022-12-29T10:58:18.460Z,11.48
2022-12-29T11:00:51.918Z,12.77
2022-12-29T11:03:50.200Z,13.20
2022-12-29T11:06:24.757Z,12.52
2022-12-29T11:08:55.932Z,11.32
2022-12-29T11:11:29.285Z,11.70
2022-12-29T11:14:04.382Z,11.68
2022-12-29T11:16:33.851Z,10.88
2022-12-29T11:19:02.610Z,11.82
2022-12-29T11:21:41.060Z,11.07
2022-12-29T11:24:24.886Z,8.35
2022-12-29T11:26:58.133Z,6.68
2022-12-29T11:29:28.594Z,5.97
2022-12-29T11:32:00.098Z,5.78
2022-12-29T11:34:32.437Z,6.95
2022-12-29T11:37:05.061Z,6.03
2022-12-29T11:39:37.228Z,6.55
2022-12-29T11:42:10.486Z,5.93
2022-12-29T11:44:43.369Z,6.70
2022-12-29T11:47:21.621Z,4.70
2022-12-29T11:49:53.169Z,4.05
2022-12-29T11:52:26.320Z,3.75
2022-12-29T11:54:55.222Z,3.95
2022-12-29T11:57:24.908Z,3.78
2022-12-29T11:59:56.063Z,3.35
2022-12-29T12:02:44.554Z,2.83
2022-12-29T12:05:23.181Z,3.15
2022-12-29T12:07:58.977Z,3.45
2022-12-29T12:10:33.750Z,3.40
2022-12-29T12:13:07.221Z,2.65
2022-12-29T12:15:47.461Z,2.50
2022-12-29T12:18:23.552Z,1.88
2022-12-29T12:20:56.349Z,2.38
2022-12-29T12:23:46.364Z,2.40
2022-12-29T12:26:17.939Z,2.65
2022-12-29T12:28:55.096Z,2.58
2022-12-29T12:31:40.178Z,3.05
2022-12-29T12:34:15.675Z,2.00
2022-12-29T12:37:06.340Z,2.83
2022-12-29T12:39:46.059Z,3.45
2022-12-29T12:42:26.714Z,2.60
2022-12-29T12:45:05.204Z,2.40
2022-12-29T12:47:51.029Z,2.47
2022-12-29T12:50:44.811Z,3.00
2022-12-29T12:53:35.896Z,2.90
2022-12-29T12:56:28.494Z,3.40
2022-12-29T12:59:09.599Z,2.83
2022-12-29T13:01:50.709Z,2.17
2022-12-29T13:04:44.871Z,3.38
2022-12-29T13:07:24.803Z,2.65
2022-12-29T13:10:14.111Z,2.88
2022-12-29T13:12:51.813Z,2.40
2022-12-29T13:15:32.433Z,2.80
2022-12-29T13:18:12.237Z,2.83
2022-12-29T13:21:04.735Z,3.00
2022-12-29T13:23:42.668Z,2.63
2022-12-29T13:26:21.251Z,3.33
2022-12-29T13:28:57.594Z,3.20
2022-12-29T13:31:33.882Z,3.10
2022-12-29T13:34:16.828Z,4.70
2022-12-29T13:36:47.920Z,4.13
2022-12-29T13:39:22.979Z,4.22
2022-12-29T13:41:53.391Z,3.92
2022-12-29T13:44:29.636Z,3.95
2022-12-29T13:47:07.014Z,3.55
2022-12-29T13:49:35.687Z,3.85
2022-12-29T13:52:14.717Z,3.33
2022-12-29T13:54:47.871Z,3.95
2022-12-29T13:57:27.793Z,3.67
2022-12-29T14:00:03.793Z,4.43
2022-12-29T14:02:52.523Z,3.88
2022-12-29T14:05:32.195Z,3.80
2022-12-29T14:08:02.026Z,3.92
2022-12-29T14:10:36.111Z,3.60
2022-12-29T14:13:13.984Z,4.10
2022-12-29T14:15:46.059Z,4.50
2022-12-29T14:18:17.046Z,4.45
2022-12-29T14:20:56.926Z,3.75
2022-12-29T14:23:30.985Z,4.53
2022-12-29T14:26:11.293Z,4.00
2022-12-29T14:28:43.851Z,5.05
2022-12-29T14:31:41.999Z,5.00
2022-12-29T14:34:41.186Z,6.65
2022-12-29T14:37:26.112Z,6.30
2022-12-29T14:40:06.161Z,7.30
2022-12-29T14:42:34.652Z,5.95
2022-12-29T14:45:04.675Z,6.82
2022-12-29T14:47:37.711Z,7.00
2022-12-29T14:50:08.588Z,7.25
2022-12-29T14:52:48.174Z,7.30
2022-12-29T14:55:39.474Z,6.80
2022-12-29T14:58:14.050Z,7.40
2022-12-29T15:00:43.584Z,6.70
2022-12-29T15:03:21.650Z,7.25
2022-12-29T15:05:52.570Z,7.45
2022-12-29T15:08:24.305Z,8.73
2022-12-29T15:10:57.307Z,9.48
2022-12-29T15:13:34.766Z,9.35
2022-12-29T15:16:02.813Z,8.55
2022-12-29T15:18:33.738Z,10.07
2022-12-29T15:21:03.837Z,10.90
2022-12-29T15:23:34.557Z,9.82
2022-12-29T15:26:04.770Z,8.32
2022-12-29T15:28:42.595Z,10.93
2022-12-29T15:31:14.480Z,10.63
2022-12-29T15:33:48.178Z,10.13
2022-12-29T15:36:21.253Z,9.73
2022-12-29T15:38:50.334Z,10.48
2022-12-29T15:41:28.944Z,8.55
2022-12-29T15:44:09.174Z,8.90
2022-12-29T15:46:38.111Z,10.63
2022-12-29T15:49:09.451Z,9.20
2022-12-29T15:51:40.567Z,9.38
2022-12-29T15:54:17.543Z,10.93
2022-12-29T15:56:46.735Z,12.13
2022-12-29T15:59:25.503Z,10.32
2022-12-29T16:01:55.530Z,12.63
2022-12-29T16:04:25.332Z,10.32
2022-12-29T16:06:58.273Z,10.15
2022-12-29T16:09:38.774Z,9.07
2022-12-29T16:12:08.929Z,10.27
2022-12-29T16:14:42.842Z,9.43
2022-12-29T16:17:16.639Z,10.80
2022-12-29T16:19:51.645Z,9.18
2022-12-29T16:22:26.756Z,9.90
2022-12-29T16:25:04.163Z,9.18
2022-12-29T16:27:40.186Z,7.32
2022-12-29T16:30:18.822Z,6.80
2022-12-29T16:32:48.499Z,6.60
2022-12-29T16:35:21.333Z,6.32
2022-12-29T16:37:50.582Z,6.60
2022-12-29T16:40:32.719Z,7.00
2022-12-29T16:43:23.595Z,7.68
2022-12-29T16:46:20.461Z,5.22
2022-12-29T16:48:51.334Z,4.43
2022-12-29T16:51:27.072Z,4.68
2022-12-29T16:53:56.259Z,5.38
2022-12-29T16:56:27.695Z,5.00
2022-12-29T16:59:05.687Z,5.45
2022-12-29T17:01:39.403Z,5.15
2022-12-29T17:04:09.800Z,5.40
2022-12-29T17:06:39.755Z,5.38
2022-12-29T17:09:19.651Z,8.43
2022-12-29T17:12:05.390Z,8.23
2022-12-29T17:14:45.096Z,6.47
2022-12-29T17:17:22.700Z,6.28
2022-12-29T17:19:53.553Z,7.03
2022-12-29T17:22:30.866Z,6.07
2022-12-29T17:24:59.898Z,6.40
2022-12-29T17:27:38.413Z,5.88
2022-12-29T17:30:11.864Z,5.38
2022-12-29T17:32:40.017Z,5.43
2022-12-29T17:35:14.155Z,5.85
2022-12-29T17:37:43.837Z,5.70
2022-12-29T17:40:19.015Z,4.95
2022-12-29T17:42:48.837Z,5.47
2022-12-29T17:45:19.141Z,5.53
2022-12-29T17:47:47.626Z,5.25
2022-12-29T17:50:17.604Z,4.47
2022-12-29T17:52:50.423Z,4.97
2022-12-29T17:55:20.961Z,4.90
2022-12-29T17:57:49.047Z,5.55
2022-12-29T18:00:19.101Z,5.90
2022-12-29T18:02:47.681Z,5.40
2022-12-29T18:05:20.782Z,5.07
2022-12-29T18:07:50.586Z,5.90
2022-12-29T18:10:18.787Z,6.32
2022-12-29T18:12:48.882Z,6.03
2022-12-29T18:15:23.925Z,7.40
2022-12-29T18:17:54.977Z,7.30
2022-12-29T18:20:22.920Z,7.45
2022-12-29T18:22:52.217Z,6.18
2022-12-29T18:25:26.890Z,7.35
2022-12-29T18:27:55.063Z,6.68
2022-12-29T18:30:23.103Z,6.55
2022-12-29T18:32:51.041Z,7.03
2022-12-29T18:35:24.069Z,6.60
2022-12-29T18:37:53.344Z,7.30
2022-12-29T18:40:21.275Z,7.07
2022-12-29T18:42:49.251Z,6.53
2022-12-29T18:45:20.181Z,7.05
2022-12-29T18:47:48.258Z,7.18
2022-12-29T18:50:19.291Z,8.43
2022-12-29T18:52:47.227Z,6.13
2022-12-29T18:55:18.739Z,5.30
2022-12-29T18:57:46.868Z,5.85
2022-12-29T19:00:18.980Z,6.43
2022-12-29T19:02:47.604Z,11.18
2022-12-29T19:05:21.774Z,14.07
2022-12-29T19:07:50.305Z,11.68
2022-12-29T19:10:20.494Z,13.13
2022-12-29T19:12:49.189Z,11.23
2022-12-29T19:15:23.359Z,12.05
2022-12-29T19:18:08.542Z,10.65
2022-12-29T19:20:42.661Z,8.40
2022-12-29T19:23:12.214Z,7.80
2022-12-29T19:25:42.011Z,9.55
2022-12-29T19:28:18.776Z,8.95
2022-12-29T19:30:51.681Z,4.38
2022-12-29T19:33:21.264Z,5.82
2022-12-29T19:35:49.292Z,4.60
2022-12-29T19:38:17.520Z,4.10
2022-12-29T19:40:51.228Z,4.63
2022-12-29T19:43:22.528Z,4.20
2022-12-29T19:45:51.309Z,4.07
2022-12-29T19:48:21.721Z,5.57
2022-12-29T19:50:50.047Z,7.05
2022-12-29T19:53:18.217Z,5.78
2022-12-29T19:55:46.620Z,5.43
2022-12-29T19:58:16.393Z,5.07
2022-12-29T20:00:45.223Z,4.65
2022-12-29T20:03:13.799Z,6.80
2022-12-29T20:05:41.891Z,5.90
2022-12-29T20:08:09.787Z,8.25
2022-12-29T20:10:37.715Z,7.50
2022-12-29T20:13:06.021Z,7.28
2022-12-29T20:15:38.593Z,5.90
2022-12-29T20:18:13.719Z,6.43
2022-12-29T20:20:42.646Z,5.97
2022-12-29T20:23:10.897Z,5.53
2022-12-29T20:25:47.265Z,5.30
2022-12-29T20:28:16.936Z,5.57
2022-12-29T20:30:56.561Z,6.88
2022-12-29T20:33:24.736Z,5.75
2022-12-29T20:35:53.158Z,7.95
2022-12-29T20:38:21.616Z,7.15
2022-12-29T20:40:49.895Z,6.68
2022-12-29T20:43:18.191Z,6.05
2022-12-29T20:45:47.900Z,5.88
2022-12-29T20:48:15.883Z,5.45
2022-12-29T20:50:44.076Z,5.95
2022-12-29T20:53:12.582Z,6.40
2022-12-29T20:55:41.779Z,8.00
2022-12-29T20:58:26.013Z,24.33
2022-12-29T21:00:56.394Z,18.40
2022-12-29T21:03:24.655Z,7.25
2022-12-29T21:05:53.737Z,8.07
2022-12-29T21:08:22.094Z,8.93
2022-12-29T21:10:51.379Z,8.50
2022-12-29T21:13:19.760Z,8.15
2022-12-29T21:15:48.122Z,9.52
2022-12-29T21:18:19.453Z,7.53
2022-12-29T21:20:56.548Z,8.15
2022-12-29T21:23:25.085Z,8.02
2022-12-29T21:25:53.685Z,8.43
2022-12-29T21:28:23.742Z,6.05
2022-12-29T21:30:52.356Z,8.43
2022-12-29T21:33:22.625Z,11.85
2022-12-29T21:35:50.578Z,12.05
2022-12-29T21:38:19.596Z,10.50
2022-12-29T21:40:47.957Z,12.00
2022-12-29T21:43:15.884Z,12.18
2022-12-29T21:45:42.859Z,13.23
2022-12-29T21:48:23.943Z,13.75
2022-12-29T21:51:13.166Z,14.40
2022-12-29T21:53:43.120Z,13.00
2022-12-29T21:56:13.401Z,11.00
2022-12-29T21:59:00.831Z,11.02
2022-12-29T22:01:48.414Z,8.30
2022-12-29T22:04:37.198Z,8.30
2022-12-29T22:07:25.289Z,7.63
2022-12-29T22:10:10.912Z,8.20
2022-12-29T22:12:56.744Z,8.25
2022-12-29T22:15:25.266Z,8.95
2022-12-29T22:17:54.855Z,9.73
2022-12-29T22:20:25.771Z,8.05
2022-12-29T22:22:55.323Z,10.65
2022-12-29T22:25:26.435Z,10.18
2022-12-29T22:27:59.307Z,10.02
2022-12-29T22:30:28.366Z,10.57
2022-12-29T22:32:58.418Z,9.98
2022-12-29T22:35:26.628Z,7.63
2022-12-29T22:37:56.015Z,9.68
2022-12-29T22:40:24.007Z,8.32
2022-12-29T22:42:51.984Z,9.02
2022-12-29T22:45:19.924Z,12.48
2022-12-29T22:47:47.835Z,9.50
2022-12-29T22:50:15.802Z,17.30
2022-12-29T22:52:43.931Z,14.13
2022-12-29T22:55:13.228Z,13.93
2022-12-29T22:57:41.495Z,12.90
2022-12-29T23:00:10.400Z,11.77
2022-12-29T23:02:38.605Z,12.48
2022-12-29T23:05:07.279Z,12.05
2022-12-29T23:07:35.976Z,12.70
2022-12-29T23:10:04.273Z,12.95
2022-12-29T23:12:33.837Z,11.65
2022-12-29T23:15:01.794Z,12.30
2022-12-29T23:17:29.969Z,10.98
2022-12-29T23:19:57.902Z,11.73
2022-12-29T23:22:25.913Z,12.82
2022-12-29T23:24:53.875Z,11.77
2022-12-29T23:27:21.819Z,10.60
2022-12-29T23:29:51.079Z,11.38
2022-12-29T23:32:19.110Z,9.70
2022-12-29T23:34:47.218Z,9.25
2022-12-29T23:37:15.156Z,11.00
2022-12-29T23:39:43.082Z,10.10
2022-12-29T23:42:12.268Z,8.90
2022-12-29T23:44:43.065Z,7.80
2022-12-29T23:47:12.961Z,7.65
2022-12-29T23:49:40.930Z,7.10
2022-12-29T23:52:08.844Z,8.85
2022-12-29T23:54:36.783Z,8.75
2022-12-29T23:57:04.785Z,8.23
2022-12-29T23:59:32.742Z,9.13
